createdAt,value
2019-01-24T00:00:09.578Z,1000.86
2019-01-24T00:00:35.687Z,1000.87
2019-01-24T00:01:01.789Z,1000.86
2019-01-24T00:01:28.382Z,1000.88
2019-01-24T00:01:54.484Z,1000.85
2019-01-24T00:02:20.615Z,1000.88
2019-01-24T00:02:46.747Z,1000.89
2019-01-24T00:03:12.852Z,1000.88
2019-01-24T00:03:38.954Z,1000.88
2019-01-24T00:04:05.057Z,1000.84
2019-01-24T00:04:32.627Z,1000.87
2019-01-24T00:04:58.792Z,1000.91
2019-01-24T00:05:24.901Z,1000.87
2019-01-24T00:05:50.996Z,1000.88
2019-01-24T00:06:17.134Z,1000.91
2019-01-24T00:06:43.235Z,1000.91
2019-01-24T00:07:09.336Z,1000.91
2019-01-24T00:07:35.465Z,1000.9
2019-01-24T00:08:01.566Z,1000.9
2019-01-24T00:08:27.674Z,1000.92
2019-01-24T00:08:53.779Z,1000.93
2019-01-24T00:09:19.881Z,1000.92
2019-01-24T00:09:45.983Z,1000.96
2019-01-24T00:10:12.117Z,1000.92
2019-01-24T00:10:38.224Z,1000.94
2019-01-24T00:11:04.325Z,1000.93
2019-01-24T00:11:30.433Z,1000.97
2019-01-24T00:11:56.540Z,1000.95
2019-01-24T00:12:22.640Z,1000.96
2019-01-24T00:12:48.741Z,1000.92
2019-01-24T00:13:14.854Z,1000.98
2019-01-24T00:13:40.984Z,1000.97
2019-01-24T00:14:07.092Z,1001.03
2019-01-24T00:14:33.211Z,1001.01
2019-01-24T00:14:59.310Z,1001.02
2019-01-24T00:15:25.412Z,1001.02
2019-01-24T00:15:51.544Z,1001.04
2019-01-24T00:16:17.771Z,1001.08
2019-01-24T00:16:43.865Z,1001.05
2019-01-24T00:17:09.969Z,1001.05
2019-01-24T00:17:36.068Z,1001.06
2019-01-24T00:18:02.172Z,1001.09
2019-01-24T00:18:28.347Z,1001.05
2019-01-24T00:18:54.462Z,1001.09
2019-01-24T00:19:20.570Z,1001.1
2019-01-24T00:19:46.667Z,1001.06
2019-01-24T00:20:12.770Z,1001.1
2019-01-24T00:20:38.875Z,1001.12
2019-01-24T00:21:04.982Z,1001.1
2019-01-24T00:21:31.085Z,1001.13
2019-01-24T00:21:57.189Z,1001.16
2019-01-24T00:22:23.299Z,1001.15
2019-01-24T00:22:49.388Z,1001.15
2019-01-24T00:23:15.495Z,1001.09
2019-01-24T00:23:41.600Z,1001.11
2019-01-24T00:24:07.732Z,1001.15
2019-01-24T00:24:33.836Z,1001.13
2019-01-24T00:24:59.934Z,1001.13
2019-01-24T00:25:26.035Z,1001.16
2019-01-24T00:25:52.137Z,1001.14
2019-01-24T00:26:18.267Z,1001.14
2019-01-24T00:26:44.377Z,1001.13
2019-01-24T00:27:36.596Z,1001.15
2019-01-24T00:28:02.728Z,1001.16
2019-01-24T00:28:28.853Z,1001.16
2019-01-24T00:28:54.949Z,1001.2
2019-01-24T00:29:21.055Z,1001.19
2019-01-24T00:29:47.163Z,1001.23
2019-01-24T00:30:13.292Z,1001.23
2019-01-24T00:30:39.430Z,1001.23
2019-01-24T00:31:05.553Z,1001.26
2019-01-24T00:31:31.650Z,1001.28
2019-01-24T00:31:57.755Z,1001.3
2019-01-24T00:32:23.885Z,1001.27
2019-01-24T00:32:49.991Z,1001.31
2019-01-24T00:33:16.098Z,1001.31
2019-01-24T00:33:42.229Z,1001.31
2019-01-24T00:34:08.334Z,1001.35
2019-01-24T00:34:35.475Z,1001.36
2019-01-24T00:35:01.601Z,1001.37
2019-01-24T00:35:27.700Z,1001.36
2019-01-24T00:35:53.793Z,1001.35
2019-01-24T00:36:19.894Z,1001.36
2019-01-24T00:36:46.002Z,1001.4
2019-01-24T00:37:12.103Z,1001.38
2019-01-24T00:37:38.203Z,1001.39
2019-01-24T00:38:04.339Z,1001.43
2019-01-24T00:38:30.447Z,1001.39
2019-01-24T00:38:56.548Z,1001.39
2019-01-24T00:39:22.654Z,1001.39
2019-01-24T00:39:48.753Z,1001.4
2019-01-24T00:40:14.854Z,1001.42
2019-01-24T00:40:41.017Z,1001.43
2019-01-24T00:41:07.146Z,1001.42
2019-01-24T00:41:33.242Z,1001.42
2019-01-24T00:41:59.346Z,1001.41
2019-01-24T00:42:25.475Z,1001.42
2019-01-24T00:42:51.578Z,1001.44
2019-01-24T00:43:17.675Z,1001.42
2019-01-24T00:43:43.777Z,1001.43
2019-01-24T00:44:09.883Z,1001.41
2019-01-24T00:44:35.985Z,1001.39
2019-01-24T00:45:02.092Z,1001.42
2019-01-24T00:45:28.223Z,1001.43
2019-01-24T00:45:54.376Z,1001.42
2019-01-24T00:46:20.482Z,1001.45
2019-01-24T00:46:46.582Z,1001.43
2019-01-24T00:47:12.682Z,1001.41
2019-01-24T00:47:38.779Z,1001.39
2019-01-24T00:48:04.880Z,1001.43
2019-01-24T00:48:30.981Z,1001.43
2019-01-24T00:48:57.082Z,1001.45
2019-01-24T00:49:23.188Z,1001.46
2019-01-24T00:49:49.349Z,1001.49
2019-01-24T00:50:15.452Z,1001.44
2019-01-24T00:50:41.555Z,1001.47
2019-01-24T00:51:07.662Z,1001.49
2019-01-24T00:51:33.794Z,1001.5
2019-01-24T00:51:59.895Z,1001.44
2019-01-24T00:52:25.996Z,1001.44
2019-01-24T00:52:52.126Z,1001.45
2019-01-24T00:53:18.232Z,1001.43
2019-01-24T00:53:44.334Z,1001.43
2019-01-24T00:54:10.469Z,1001.44
2019-01-24T00:54:36.571Z,1001.44
2019-01-24T00:55:02.673Z,1001.42
2019-01-24T00:55:28.778Z,1001.43
2019-01-24T00:55:54.882Z,1001.45
2019-01-24T00:56:21.009Z,1001.47
2019-01-24T00:56:47.112Z,1001.48
2019-01-24T00:57:13.214Z,1001.44
2019-01-24T00:57:39.320Z,1001.46
2019-01-24T00:58:05.419Z,1001.46
2019-01-24T00:58:31.527Z,1001.43
2019-01-24T00:58:57.631Z,1001.46
2019-01-24T00:59:23.734Z,1001.47
2019-01-24T00:59:49.835Z,1001.5
2019-01-24T01:00:15.934Z,1001.47
2019-01-24T01:00:42.046Z,1001.47
2019-01-24T01:01:08.175Z,1001.48
2019-01-24T01:01:34.274Z,1001.44
2019-01-24T01:02:00.370Z,1001.47
2019-01-24T01:02:26.479Z,1001.45
2019-01-24T01:02:52.577Z,1001.46
2019-01-24T01:03:18.681Z,1001.46
2019-01-24T01:03:44.814Z,1001.45
2019-01-24T01:04:10.923Z,1001.47
2019-01-24T01:04:38.014Z,1001.48
2019-01-24T01:05:04.110Z,1001.46
2019-01-24T01:05:30.269Z,1001.48
2019-01-24T01:05:56.376Z,1001.46
2019-01-24T01:06:22.480Z,1001.46
2019-01-24T01:06:48.578Z,1001.44
2019-01-24T01:07:14.704Z,1001.47
2019-01-24T01:07:40.812Z,1001.5
2019-01-24T01:08:06.914Z,1001.48
2019-01-24T01:08:33.023Z,1001.51
2019-01-24T01:08:59.156Z,1001.51
2019-01-24T01:09:25.261Z,1001.53
2019-01-24T01:09:51.390Z,1001.54
2019-01-24T01:10:17.526Z,1001.55
2019-01-24T01:10:43.622Z,1001.57
2019-01-24T01:11:09.730Z,1001.56
2019-01-24T01:11:35.831Z,1001.59
2019-01-24T01:12:01.965Z,1001.62
2019-01-24T01:12:28.078Z,1001.57
2019-01-24T01:12:54.176Z,1001.6
2019-01-24T01:13:20.270Z,1001.62
2019-01-24T01:13:46.372Z,1001.63
2019-01-24T01:14:12.472Z,1001.59
2019-01-24T01:14:38.579Z,1001.64
2019-01-24T01:15:04.682Z,1001.65
2019-01-24T01:15:30.787Z,1001.67
2019-01-24T01:15:56.908Z,1001.62
2019-01-24T01:16:23.009Z,1001.63
2019-01-24T01:16:49.106Z,1001.64
2019-01-24T01:17:15.211Z,1001.65
2019-01-24T01:17:41.305Z,1001.64
2019-01-24T01:18:07.414Z,1001.63
2019-01-24T01:18:33.539Z,1001.67
2019-01-24T01:18:59.644Z,1001.63
2019-01-24T01:19:25.770Z,1001.64
2019-01-24T01:19:51.872Z,1001.68
2019-01-24T01:20:17.973Z,1001.65
2019-01-24T01:20:44.075Z,1001.67
2019-01-24T01:21:10.176Z,1001.69
2019-01-24T01:21:36.280Z,1001.69
2019-01-24T01:22:02.420Z,1001.68
2019-01-24T01:22:28.545Z,1001.68
2019-01-24T01:22:54.651Z,1001.7
2019-01-24T01:23:20.758Z,1001.68
2019-01-24T01:23:46.857Z,1001.72
2019-01-24T01:24:12.987Z,1001.76
2019-01-24T01:24:39.089Z,1001.75
2019-01-24T01:25:05.194Z,1001.74
2019-01-24T01:25:31.296Z,1001.74
2019-01-24T01:25:57.392Z,1001.74
2019-01-24T01:26:23.492Z,1001.73
2019-01-24T01:26:49.603Z,1001.74
2019-01-24T01:27:15.708Z,1001.69
2019-01-24T01:27:41.810Z,1001.77
2019-01-24T01:28:07.935Z,1001.74
2019-01-24T01:28:34.046Z,1001.74
2019-01-24T01:29:00.156Z,1001.8
2019-01-24T01:29:26.293Z,1001.78
2019-01-24T01:29:52.428Z,1001.77
2019-01-24T01:30:18.520Z,1001.79
2019-01-24T01:30:44.652Z,1001.8
2019-01-24T01:31:10.756Z,1001.8
2019-01-24T01:31:36.860Z,1001.84
2019-01-24T01:32:02.967Z,1001.81
2019-01-24T01:32:29.065Z,1001.81
2019-01-24T01:32:55.201Z,1001.78
2019-01-24T01:33:21.310Z,1001.8
2019-01-24T01:33:47.430Z,1001.78
2019-01-24T01:34:13.536Z,1001.83
2019-01-24T01:34:39.661Z,1001.78
2019-01-24T01:35:05.761Z,1001.8
2019-01-24T01:35:31.866Z,1001.84
2019-01-24T01:35:57.968Z,1001.87
2019-01-24T01:36:24.066Z,1001.82
2019-01-24T01:36:50.167Z,1001.83
2019-01-24T01:37:16.281Z,1001.85
2019-01-24T01:37:42.378Z,1001.82
2019-01-24T01:38:08.512Z,1001.82
2019-01-24T01:38:34.622Z,1001.87
2019-01-24T01:39:00.722Z,1001.86
2019-01-24T01:39:26.824Z,1001.88
2019-01-24T01:39:52.970Z,1001.88
2019-01-24T01:40:19.034Z,1001.88
2019-01-24T01:40:45.166Z,1001.9
2019-01-24T01:41:11.274Z,1001.87
2019-01-24T01:41:37.411Z,1001.89
2019-01-24T01:42:03.516Z,1001.9
2019-01-24T01:42:29.615Z,1001.9
2019-01-24T01:42:55.719Z,1001.88
2019-01-24T01:43:21.821Z,1001.89
2019-01-24T01:43:47.920Z,1001.87
2019-01-24T01:44:14.033Z,1001.86
2019-01-24T01:44:40.137Z,1001.89
2019-01-24T01:45:06.269Z,1001.89
2019-01-24T01:45:32.375Z,1001.9
2019-01-24T01:45:58.482Z,1001.89
2019-01-24T01:46:24.586Z,1001.88
2019-01-24T01:46:50.693Z,1001.85
2019-01-24T01:47:16.814Z,1001.87
2019-01-24T01:47:42.921Z,1001.92
2019-01-24T01:48:09.074Z,1001.94
2019-01-24T01:48:35.206Z,1001.94
2019-01-24T01:49:01.313Z,1001.94
2019-01-24T01:49:27.411Z,1001.94
2019-01-24T01:49:53.515Z,1001.95
2019-01-24T01:50:19.640Z,1001.96
2019-01-24T01:50:45.805Z,1001.94
2019-01-24T01:51:11.911Z,1001.98
2019-01-24T01:51:38.010Z,1001.97
2019-01-24T01:52:04.112Z,1001.95
2019-01-24T01:52:30.218Z,1001.99
2019-01-24T01:52:56.318Z,1001.97
2019-01-24T01:53:22.425Z,1001.95
2019-01-24T01:53:48.578Z,1001.97
2019-01-24T01:54:14.683Z,1001.93
2019-01-24T01:54:40.785Z,1001.98
2019-01-24T01:55:06.923Z,1001.97
2019-01-24T01:55:33.054Z,1001.96
2019-01-24T01:55:59.154Z,1001.96
2019-01-24T01:56:25.281Z,1001.95
2019-01-24T01:56:51.382Z,1001.95
2019-01-24T01:57:17.484Z,1001.94
2019-01-24T01:57:43.589Z,1001.95
2019-01-24T01:58:09.703Z,1001.98
2019-01-24T01:58:35.796Z,1001.97
2019-01-24T01:59:01.902Z,1001.97
2019-01-24T01:59:28.004Z,1001.97
2019-01-24T01:59:54.140Z,1001.94
2019-01-24T02:00:20.237Z,1001.96
2019-01-24T02:00:46.368Z,1001.93
2019-01-24T02:01:12.468Z,1001.94
2019-01-24T02:01:38.578Z,1001.95
2019-01-24T02:02:04.679Z,1001.95
2019-01-24T02:02:30.785Z,1001.95
2019-01-24T02:02:56.891Z,1001.93
2019-01-24T02:03:23.018Z,1001.92
2019-01-24T02:03:49.123Z,1001.93
2019-01-24T02:04:15.253Z,1001.93
2019-01-24T02:04:42.828Z,1001.98
2019-01-24T02:05:08.482Z,1001.97
2019-01-24T02:05:34.594Z,1001.97
2019-01-24T02:06:00.692Z,1001.96
2019-01-24T02:06:26.801Z,1001.95
2019-01-24T02:06:52.927Z,1001.95
2019-01-24T02:07:19.068Z,1001.93
2019-01-24T02:07:45.168Z,1001.9
2019-01-24T02:08:11.303Z,1001.96
2019-01-24T02:08:37.433Z,1001.96
2019-01-24T02:09:03.530Z,1001.95
2019-01-24T02:09:29.620Z,1001.96
2019-01-24T02:09:55.708Z,1001.94
2019-01-24T02:10:21.820Z,1001.95
2019-01-24T02:10:47.909Z,1001.95
2019-01-24T02:11:13.997Z,1001.95
2019-01-24T02:11:40.085Z,1001.96
2019-01-24T02:12:06.188Z,1001.98
2019-01-24T02:12:32.292Z,1001.99
2019-01-24T02:12:58.395Z,1001.99
2019-01-24T02:13:24.494Z,1002
2019-01-24T02:13:50.595Z,1001.97
2019-01-24T02:14:16.701Z,1001.98
2019-01-24T02:14:42.802Z,1001.97
2019-01-24T02:15:08.903Z,1001.99
2019-01-24T02:15:35.008Z,1001.98
2019-01-24T02:16:01.140Z,1001.98
2019-01-24T02:16:27.296Z,1002
2019-01-24T02:16:53.418Z,1002.01
2019-01-24T02:17:19.530Z,1002
2019-01-24T02:17:45.633Z,1002
2019-01-24T02:18:11.731Z,1001.98
2019-01-24T02:18:37.833Z,1002.03
2019-01-24T02:19:03.979Z,1002.04
2019-01-24T02:19:30.083Z,1002.06
2019-01-24T02:19:56.186Z,1002.03
2019-01-24T02:20:22.319Z,1002.01
2019-01-24T02:20:48.420Z,1002.05
2019-01-24T02:21:14.555Z,1002.01
2019-01-24T02:21:40.660Z,1002.08
2019-01-24T02:22:06.787Z,1002.05
2019-01-24T02:22:32.889Z,1002.06
2019-01-24T02:22:58.992Z,1002.05
2019-01-24T02:23:25.095Z,1002.06
2019-01-24T02:23:51.196Z,1002.08
2019-01-24T02:24:17.300Z,1002.04
2019-01-24T02:24:43.459Z,1002.08
2019-01-24T02:25:09.562Z,1002.07
2019-01-24T02:25:35.695Z,1002.05
2019-01-24T02:26:01.801Z,1002.06
2019-01-24T02:26:27.902Z,1002.07
2019-01-24T02:26:54.008Z,1002.13
2019-01-24T02:27:20.115Z,1002.09
2019-01-24T02:27:46.210Z,1002.08
2019-01-24T02:28:12.314Z,1002.09
2019-01-24T02:28:38.413Z,1002.12
2019-01-24T02:29:04.516Z,1002.08
2019-01-24T02:29:30.619Z,1002.07
2019-01-24T02:29:56.716Z,1002.11
2019-01-24T02:30:22.855Z,1002.06
2019-01-24T02:30:48.986Z,1002.04
2019-01-24T02:31:15.123Z,1002.08
2019-01-24T02:31:41.225Z,1002.04
2019-01-24T02:32:07.345Z,1002.04
2019-01-24T02:32:33.445Z,1002.04
2019-01-24T02:32:59.603Z,1002.02
2019-01-24T02:33:25.713Z,1002.05
2019-01-24T02:33:51.815Z,1002
2019-01-24T02:34:17.951Z,1002.05
2019-01-24T02:34:49.603Z,1002.01
2019-01-24T02:35:11.166Z,1002.04
2019-01-24T02:35:37.294Z,1002.05
2019-01-24T02:36:03.402Z,1002.04
2019-01-24T02:36:29.504Z,1002.08
2019-01-24T02:36:55.604Z,1002.1
2019-01-24T02:37:21.734Z,1002.11
2019-01-24T02:37:47.834Z,1002.12
2019-01-24T02:38:13.971Z,1002.12
2019-01-24T02:38:40.104Z,1002.11
2019-01-24T02:39:06.216Z,1002.14
2019-01-24T02:39:32.320Z,1002.15
2019-01-24T02:39:58.431Z,1002.15
2019-01-24T02:40:24.555Z,1002.15
2019-01-24T02:40:50.684Z,1002.13
2019-01-24T02:41:16.785Z,1002.13
2019-01-24T02:41:42.887Z,1002.12
2019-01-24T02:42:09.022Z,1002.13
2019-01-24T02:42:35.127Z,1002.14
2019-01-24T02:43:01.227Z,1002.12
2019-01-24T02:43:27.327Z,1002.15
2019-01-24T02:43:53.432Z,1002.19
2019-01-24T02:44:19.558Z,1002.19
2019-01-24T02:44:45.667Z,1002.14
2019-01-24T02:45:11.770Z,1002.17
2019-01-24T02:45:37.961Z,1002.17
2019-01-24T02:46:04.095Z,1002.15
2019-01-24T02:46:30.195Z,1002.16
2019-01-24T02:46:56.328Z,1002.17
2019-01-24T02:47:22.433Z,1002.15
2019-01-24T02:47:48.538Z,1002.21
2019-01-24T02:48:14.638Z,1002.23
2019-01-24T02:48:40.766Z,1002.16
2019-01-24T02:49:06.876Z,1002.19
2019-01-24T02:49:32.975Z,1002.16
2019-01-24T02:49:59.080Z,1002.2
2019-01-24T02:50:25.184Z,1002.16
2019-01-24T02:50:51.289Z,1002.19
2019-01-24T02:51:17.387Z,1002.19
2019-01-24T02:51:43.488Z,1002.2
2019-01-24T02:52:09.590Z,1002.16
2019-01-24T02:52:35.698Z,1002.16
2019-01-24T02:53:01.827Z,1002.17
2019-01-24T02:53:27.927Z,1002.14
2019-01-24T02:53:54.059Z,1002.12
2019-01-24T02:54:20.159Z,1002.14
2019-01-24T02:54:46.295Z,1002.13
2019-01-24T02:55:12.401Z,1002.15
2019-01-24T02:55:38.534Z,1002.17
2019-01-24T02:56:04.749Z,1002.13
2019-01-24T02:56:30.851Z,1002.13
2019-01-24T02:56:56.972Z,1002.17
2019-01-24T02:57:23.077Z,1002.17
2019-01-24T02:57:49.189Z,1002.17
2019-01-24T02:58:15.292Z,1002.19
2019-01-24T02:58:41.397Z,1002.2
2019-01-24T02:59:07.499Z,1002.23
2019-01-24T02:59:33.600Z,1002.28
2019-01-24T02:59:59.705Z,1002.26
2019-01-24T03:00:25.809Z,1002.24
2019-01-24T03:00:51.913Z,1002.3
2019-01-24T03:01:18.013Z,1002.28
2019-01-24T03:01:44.147Z,1002.24
2019-01-24T03:02:10.285Z,1002.3
2019-01-24T03:02:36.412Z,1002.28
2019-01-24T03:03:02.521Z,1002.32
2019-01-24T03:03:28.615Z,1002.3
2019-01-24T03:03:54.724Z,1002.25
2019-01-24T03:04:20.833Z,1002.28
2019-01-24T03:04:46.959Z,1002.28
2019-01-24T03:05:14.086Z,1002.32
2019-01-24T03:05:40.217Z,1002.27
2019-01-24T03:06:06.318Z,1002.29
2019-01-24T03:06:32.475Z,1002.3
2019-01-24T03:06:58.579Z,1002.26
2019-01-24T03:07:24.678Z,1002.25
2019-01-24T03:07:50.793Z,1002.24
2019-01-24T03:08:16.892Z,1002.32
2019-01-24T03:08:42.997Z,1002.23
2019-01-24T03:09:09.099Z,1002.24
2019-01-24T03:09:35.204Z,1002.27
2019-01-24T03:10:01.311Z,1002.23
2019-01-24T03:10:27.464Z,1002.25
2019-01-24T03:10:53.571Z,1002.22
2019-01-24T03:11:19.674Z,1002.29
2019-01-24T03:11:45.780Z,1002.29
2019-01-24T03:12:11.880Z,1002.32
2019-01-24T03:12:37.976Z,1002.32
2019-01-24T03:13:04.086Z,1002.3
2019-01-24T03:13:30.190Z,1002.3
2019-01-24T03:13:56.330Z,1002.34
2019-01-24T03:14:22.458Z,1002.32
2019-01-24T03:14:48.595Z,1002.36
2019-01-24T03:15:14.719Z,1002.34
2019-01-24T03:15:40.855Z,1002.36
2019-01-24T03:16:06.965Z,1002.38
2019-01-24T03:16:33.099Z,1002.35
2019-01-24T03:16:59.228Z,1002.38
2019-01-24T03:17:25.352Z,1002.38
2019-01-24T03:17:51.476Z,1002.38
2019-01-24T03:18:17.587Z,1002.36
2019-01-24T03:18:43.742Z,1002.36
2019-01-24T03:19:09.843Z,1002.37
2019-01-24T03:19:35.973Z,1002.34
2019-01-24T03:20:02.084Z,1002.37
2019-01-24T03:20:28.188Z,1002.34
2019-01-24T03:20:54.314Z,1002.34
2019-01-24T03:21:20.413Z,1002.39
2019-01-24T03:21:46.523Z,1002.36
2019-01-24T03:22:12.656Z,1002.42
2019-01-24T03:22:38.759Z,1002.35
2019-01-24T03:23:04.886Z,1002.36
2019-01-24T03:23:30.989Z,1002.37
2019-01-24T03:23:57.088Z,1002.37
2019-01-24T03:24:23.220Z,1002.38
2019-01-24T03:24:49.351Z,1002.36
2019-01-24T03:25:15.482Z,1002.35
2019-01-24T03:25:41.582Z,1002.35
2019-01-24T03:26:07.711Z,1002.35
2019-01-24T03:26:33.815Z,1002.4
2019-01-24T03:26:59.947Z,1002.35
2019-01-24T03:27:26.105Z,1002.32
2019-01-24T03:27:52.238Z,1002.33
2019-01-24T03:28:18.334Z,1002.35
2019-01-24T03:28:44.482Z,1002.36
2019-01-24T03:29:10.577Z,1002.32
2019-01-24T03:29:36.682Z,1002.34
2019-01-24T03:30:02.790Z,1002.35
2019-01-24T03:30:28.913Z,1002.34
2019-01-24T03:30:55.069Z,1002.35
2019-01-24T03:31:21.203Z,1002.35
2019-01-24T03:31:47.331Z,1002.34
2019-01-24T03:32:13.487Z,1002.35
2019-01-24T03:32:39.670Z,1002.35
2019-01-24T03:33:05.812Z,1002.35
2019-01-24T03:33:31.971Z,1002.37
2019-01-24T03:33:58.074Z,1002.31
2019-01-24T03:34:24.183Z,1002.34
2019-01-24T03:34:50.313Z,1002.38
2019-01-24T03:35:17.403Z,1002.36
2019-01-24T03:35:43.509Z,1002.33
2019-01-24T03:36:09.636Z,1002.37
2019-01-24T03:36:35.737Z,1002.36
2019-01-24T03:37:01.876Z,1002.32
2019-01-24T03:37:28.001Z,1002.29
2019-01-24T03:37:54.098Z,1002.32
2019-01-24T03:38:20.204Z,1002.29
2019-01-24T03:38:46.330Z,1002.32
2019-01-24T03:39:12.441Z,1002.32
2019-01-24T03:39:38.568Z,1002.32
2019-01-24T03:40:04.697Z,1002.35
2019-01-24T03:40:30.822Z,1002.33
2019-01-24T03:40:56.924Z,1002.34
2019-01-24T03:41:23.034Z,1002.35
2019-01-24T03:41:49.136Z,1002.31
2019-01-24T03:42:15.240Z,1002.32
2019-01-24T03:42:41.402Z,1002.34
2019-01-24T03:43:07.539Z,1002.37
2019-01-24T03:43:33.639Z,1002.36
2019-01-24T03:43:59.743Z,1002.43
2019-01-24T03:44:25.846Z,1002.36
2019-01-24T03:44:51.981Z,1002.34
2019-01-24T03:45:18.115Z,1002.37
2019-01-24T03:45:44.234Z,1002.38
2019-01-24T03:46:10.337Z,1002.38
2019-01-24T03:46:36.434Z,1002.39
2019-01-24T03:47:02.567Z,1002.4
2019-01-24T03:47:28.696Z,1002.36
2019-01-24T03:47:54.794Z,1002.4
2019-01-24T03:48:20.901Z,1002.4
2019-01-24T03:48:47.008Z,1002.4
2019-01-24T03:49:14.405Z,1002.38
2019-01-24T03:49:39.282Z,1002.38
2019-01-24T03:50:05.490Z,1002.43
2019-01-24T03:50:31.593Z,1002.41
2019-01-24T03:50:57.701Z,1002.43
2019-01-24T03:51:23.800Z,1002.41
2019-01-24T03:51:49.906Z,1002.43
2019-01-24T03:52:16.010Z,1002.43
2019-01-24T03:52:42.110Z,1002.47
2019-01-24T03:53:08.243Z,1002.43
2019-01-24T03:53:34.380Z,1002.44
2019-01-24T03:54:00.528Z,1002.41
2019-01-24T03:54:26.635Z,1002.48
2019-01-24T03:54:52.739Z,1002.44
2019-01-24T03:55:18.903Z,1002.45
2019-01-24T03:55:45.036Z,1002.49
2019-01-24T03:56:11.140Z,1002.44
2019-01-24T03:56:37.267Z,1002.47
2019-01-24T03:57:03.395Z,1002.43
2019-01-24T03:57:29.500Z,1002.43
2019-01-24T03:57:55.661Z,1002.45
2019-01-24T03:58:21.813Z,1002.46
2019-01-24T03:58:47.916Z,1002.42
2019-01-24T03:59:14.017Z,1002.43
2019-01-24T03:59:40.113Z,1002.42
2019-01-24T04:00:06.225Z,1002.43
2019-01-24T04:00:32.352Z,1002.4
2019-01-24T04:00:58.455Z,1002.4
2019-01-24T04:01:24.561Z,1002.38
2019-01-24T04:01:50.662Z,1002.4
2019-01-24T04:02:16.772Z,1002.37
2019-01-24T04:02:42.896Z,1002.4
2019-01-24T04:03:09.033Z,1002.39
2019-01-24T04:03:35.129Z,1002.42
2019-01-24T04:04:01.258Z,1002.4
2019-01-24T04:04:27.362Z,1002.4
2019-01-24T04:04:53.519Z,1002.43
2019-01-24T04:05:20.632Z,1002.44
2019-01-24T04:05:46.761Z,1002.41
2019-01-24T04:06:12.891Z,1002.39
2019-01-24T04:06:38.999Z,1002.4
2019-01-24T04:07:05.107Z,1002.42
2019-01-24T04:07:31.207Z,1002.43
2019-01-24T04:07:57.327Z,1002.41
2019-01-24T04:08:23.430Z,1002.42
2019-01-24T04:08:49.529Z,1002.38
2019-01-24T04:09:15.625Z,1002.41
2019-01-24T04:09:41.733Z,1002.41
2019-01-24T04:10:07.830Z,1002.4
2019-01-24T04:10:33.938Z,1002.42
2019-01-24T04:11:00.037Z,1002.41
2019-01-24T04:11:26.146Z,1002.44
2019-01-24T04:11:52.244Z,1002.46
2019-01-24T04:12:19.050Z,1002.46
2019-01-24T04:12:45.212Z,1002.45
2019-01-24T04:13:11.348Z,1002.46
2019-01-24T04:13:37.478Z,1002.44
2019-01-24T04:14:03.609Z,1002.47
2019-01-24T04:14:29.734Z,1002.48
2019-01-24T04:14:55.841Z,1002.47
2019-01-24T04:15:21.947Z,1002.44
2019-01-24T04:15:48.045Z,1002.47
2019-01-24T04:16:14.178Z,1002.47
2019-01-24T04:16:40.274Z,1002.42
2019-01-24T04:17:06.416Z,1002.49
2019-01-24T04:17:32.516Z,1002.48
2019-01-24T04:17:58.612Z,1002.49
2019-01-24T04:18:24.717Z,1002.47
2019-01-24T04:18:50.845Z,1002.43
2019-01-24T04:19:16.973Z,1002.45
2019-01-24T04:19:43.084Z,1002.46
2019-01-24T04:20:09.208Z,1002.41
2019-01-24T04:20:35.499Z,1002.42
2019-01-24T04:21:01.681Z,1002.43
2019-01-24T04:21:28.611Z,1002.43
2019-01-24T04:21:54.717Z,1002.46
2019-01-24T04:22:20.815Z,1002.45
2019-01-24T04:22:46.951Z,1002.44
2019-01-24T04:23:13.056Z,1002.43
2019-01-24T04:23:39.160Z,1002.47
2019-01-24T04:24:05.267Z,1002.46
2019-01-24T04:24:31.397Z,1002.49
2019-01-24T04:24:57.499Z,1002.45
2019-01-24T04:25:23.653Z,1002.53
2019-01-24T04:25:49.759Z,1002.47
2019-01-24T04:26:15.949Z,1002.45
2019-01-24T04:26:42.079Z,1002.53
2019-01-24T04:27:08.205Z,1002.5
2019-01-24T04:27:34.304Z,1002.51
2019-01-24T04:28:00.438Z,1002.48
2019-01-24T04:28:26.545Z,1002.49
2019-01-24T04:28:52.676Z,1002.5
2019-01-24T04:29:18.776Z,1002.5
2019-01-24T04:29:44.906Z,1002.54
2019-01-24T04:30:11.073Z,1002.51
2019-01-24T04:30:37.169Z,1002.52
2019-01-24T04:31:03.281Z,1002.54
2019-01-24T04:31:29.384Z,1002.56
2019-01-24T04:31:55.477Z,1002.53
2019-01-24T04:32:21.581Z,1002.59
2019-01-24T04:32:47.682Z,1002.6
2019-01-24T04:33:13.823Z,1002.57
2019-01-24T04:33:39.921Z,1002.57
2019-01-24T04:34:06.022Z,1002.55
2019-01-24T04:34:32.124Z,1002.62
2019-01-24T04:34:58.226Z,1002.62
2019-01-24T04:35:25.349Z,1002.59
2019-01-24T04:35:51.451Z,1002.6
2019-01-24T04:36:17.557Z,1002.61
2019-01-24T04:36:43.663Z,1002.6
2019-01-24T04:37:09.796Z,1002.65
2019-01-24T04:37:35.931Z,1002.65
2019-01-24T04:38:02.063Z,1002.65
2019-01-24T04:38:28.166Z,1002.65
2019-01-24T04:38:54.267Z,1002.63
2019-01-24T04:39:20.368Z,1002.64
2019-01-24T04:39:46.470Z,1002.63
2019-01-24T04:40:12.594Z,1002.67
2019-01-24T04:40:38.698Z,1002.66
2019-01-24T04:41:04.831Z,1002.63
2019-01-24T04:41:30.931Z,1002.63
2019-01-24T04:41:57.060Z,1002.64
2019-01-24T04:42:23.155Z,1002.62
2019-01-24T04:42:49.292Z,1002.66
2019-01-24T04:43:15.466Z,1002.64
2019-01-24T04:43:41.531Z,1002.65
2019-01-24T04:44:07.628Z,1002.67
2019-01-24T04:44:33.728Z,1002.65
2019-01-24T04:44:59.862Z,1002.67
2019-01-24T04:45:25.962Z,1002.69
2019-01-24T04:45:52.070Z,1002.65
2019-01-24T04:46:18.169Z,1002.69
2019-01-24T04:46:44.272Z,1002.66
2019-01-24T04:47:10.376Z,1002.66
2019-01-24T04:47:36.482Z,1002.67
2019-01-24T04:48:02.609Z,1002.68
2019-01-24T04:48:28.720Z,1002.7
2019-01-24T04:48:54.821Z,1002.64
2019-01-24T04:49:20.949Z,1002.65
2019-01-24T04:49:47.057Z,1002.68
2019-01-24T04:50:13.196Z,1002.68
2019-01-24T04:50:39.366Z,1002.7
2019-01-24T04:51:05.465Z,1002.66
2019-01-24T04:51:31.579Z,1002.7
2019-01-24T04:51:57.676Z,1002.69
2019-01-24T04:52:23.809Z,1002.7
2019-01-24T04:52:49.942Z,1002.69
2019-01-24T04:53:16.044Z,1002.68
2019-01-24T04:53:42.168Z,1002.7
2019-01-24T04:54:08.307Z,1002.72
2019-01-24T04:54:34.436Z,1002.71
2019-01-24T04:55:00.546Z,1002.71
2019-01-24T04:55:26.638Z,1002.72
2019-01-24T04:55:52.745Z,1002.76
2019-01-24T04:56:18.849Z,1002.75
2019-01-24T04:56:44.953Z,1002.71
2019-01-24T04:57:11.119Z,1002.75
2019-01-24T04:57:37.223Z,1002.77
2019-01-24T04:58:04.337Z,1002.76
2019-01-24T04:58:30.440Z,1002.77
2019-01-24T04:58:56.547Z,1002.79
2019-01-24T04:59:22.644Z,1002.79
2019-01-24T04:59:48.776Z,1002.79
2019-01-24T05:00:14.880Z,1002.79
2019-01-24T05:00:40.981Z,1002.8
2019-01-24T05:01:07.088Z,1002.81
2019-01-24T05:01:33.215Z,1002.81
2019-01-24T05:01:59.318Z,1002.86
2019-01-24T05:02:25.442Z,1002.86
2019-01-24T05:02:51.571Z,1002.81
2019-01-24T05:03:17.675Z,1002.83
2019-01-24T05:03:43.803Z,1002.88
2019-01-24T05:04:09.978Z,1002.85
2019-01-24T05:04:36.068Z,1002.85
2019-01-24T05:05:02.206Z,1002.88
2019-01-24T05:05:29.317Z,1002.82
2019-01-24T05:05:55.426Z,1002.83
2019-01-24T05:06:21.529Z,1002.81
2019-01-24T05:06:47.636Z,1002.83
2019-01-24T05:07:13.736Z,1002.83
2019-01-24T05:07:39.838Z,1002.81
2019-01-24T05:08:05.942Z,1002.8
2019-01-24T05:08:32.044Z,1002.83
2019-01-24T05:08:58.144Z,1002.79
2019-01-24T05:09:24.250Z,1002.84
2019-01-24T05:09:50.346Z,1002.81
2019-01-24T05:10:16.475Z,1002.8
2019-01-24T05:10:42.602Z,1002.82
2019-01-24T05:11:08.731Z,1002.82
2019-01-24T05:11:34.842Z,1002.82
2019-01-24T05:12:00.939Z,1002.84
2019-01-24T05:12:27.074Z,1002.9
2019-01-24T05:12:53.211Z,1002.83
2019-01-24T05:13:19.314Z,1002.89
2019-01-24T05:13:45.414Z,1002.85
2019-01-24T05:14:11.520Z,1002.85
2019-01-24T05:14:37.620Z,1002.87
2019-01-24T05:15:03.751Z,1002.9
2019-01-24T05:15:29.851Z,1002.87
2019-01-24T05:15:55.982Z,1002.89
2019-01-24T05:16:22.099Z,1002.91
2019-01-24T05:16:48.249Z,1002.88
2019-01-24T05:17:14.410Z,1002.89
2019-01-24T05:17:40.537Z,1002.86